sensor_id;sensor_type;location;lat;lon;timestamp;P1;durP1;ratioP1;P2;durP2;ratioP2
4595;SDS011;2310;49.978;8.742;2023-03-01T00:01:49;17.73;;;13.67;;
4595;SDS011;2310;49.978;8.742;2023-03-01T00:05:50;18.13;;;13.47;;
4595;SDS011;2310;49.978;8.742;2023-03-01T00:09:51;18.60;;;12.77;;
4595;SDS011;2310;49.978;8.742;2023-03-01T00:13:54;17.77;;;12.90;;
4595;SDS011;2310;49.978;8.742;2023-03-01T00:17:57;16.87;;;13.37;;
4595;SDS011;2310;49.978;8.742;2023-03-01T00:21:58;20.83;;;13.50;;
4595;SDS011;2310;49.978;8.742;2023-03-01T00:25:59;18.40;;;13.40;;
4595;SDS011;2310;49.978;8.742;2023-03-01T00:30:00;18.60;;;13.87;;
4595;SDS011;2310;49.978;8.742;2023-03-01T00:34:03;21.23;;;12.90;;
4595;SDS011;2310;49.978;8.742;2023-03-01T00:38:06;18.27;;;13.30;;
4595;SDS011;2310;49.978;8.742;2023-03-01T00:42:07;19.10;;;13.67;;
4595;SDS011;2310;49.978;8.742;2023-03-01T00:46:12;21.07;;;13.40;;
4595;SDS011;2310;49.978;8.742;2023-03-01T00:50:16;17.43;;;13.43;;
4595;SDS011;2310;49.978;8.742;2023-03-01T00:54:18;20.37;;;14.80;;
4595;SDS011;2310;49.978;8.742;2023-03-01T00:58:19;16.80;;;12.73;;
4595;SDS011;2310;49.978;8.742;2023-03-01T01:02:20;17.97;;;15.10;;
4595;SDS011;2310;49.978;8.742;2023-03-01T01:06:26;17.23;;;12.43;;
4595;SDS011;2310;49.978;8.742;2023-03-01T01:10:29;17.57;;;13.40;;
4595;SDS011;2310;49.978;8.742;2023-03-01T01:14:30;15.47;;;12.10;;
4595;SDS011;2310;49.978;8.742;2023-03-01T01:18:32;19.30;;;14.27;;
4595;SDS011;2310;49.978;8.742;2023-03-01T01:22:33;18.47;;;14.37;;
4595;SDS011;2310;49.978;8.742;2023-03-01T01:26:34;20.50;;;15.30;;
4595;SDS011;2310;49.978;8.742;2023-03-01T01:30:36;19.40;;;13.73;;
4595;SDS011;2310;49.978;8.742;2023-03-01T01:34:37;21.60;;;15.17;;
4595;SDS011;2310;49.978;8.742;2023-03-01T01:38:39;18.87;;;13.80;;
4595;SDS011;2310;49.978;8.742;2023-03-01T01:42:40;17.70;;;14.50;;
4595;SDS011;2310;49.978;8.742;2023-03-01T01:51:02;17.53;;;13.83;;
4595;SDS011;2310;49.978;8.742;2023-03-01T01:55:07;18.27;;;13.73;;
4595;SDS011;2310;49.978;8.742;2023-03-01T01:59:11;18.40;;;14.43;;
4595;SDS011;2310;49.978;8.742;2023-03-01T02:03:14;18.43;;;14.33;;
4595;SDS011;2310;49.978;8.742;2023-03-01T02:07:19;18.80;;;13.70;;
4595;SDS011;2310;49.978;8.742;2023-03-01T02:11:23;19.03;;;14.03;;
4595;SDS011;2310;49.978;8.742;2023-03-01T02:15:24;17.47;;;13.73;;
4595;SDS011;2310;49.978;8.742;2023-03-01T02:19:30;20.83;;;14.43;;
4595;SDS011;2310;49.978;8.742;2023-03-01T02:23:47;19.20;;;13.33;;
4595;SDS011;2310;49.978;8.742;2023-03-01T02:27:50;16.50;;;13.30;;
4595;SDS011;2310;49.978;8.742;2023-03-01T02:31:54;15.10;;;12.60;;
4595;SDS011;2310;49.978;8.742;2023-03-01T02:35:58;20.27;;;14.00;;
4595;SDS011;2310;49.978;8.742;2023-03-01T02:40:02;21.20;;;14.97;;
4595;SDS011;2310;49.978;8.742;2023-03-01T02:44:06;18.90;;;15.07;;
4595;SDS011;2310;49.978;8.742;2023-03-01T02:48:09;19.47;;;14.07;;
4595;SDS011;2310;49.978;8.742;2023-03-01T02:56:35;21.33;;;13.70;;
4595;SDS011;2310;49.978;8.742;2023-03-01T03:00:38;18.70;;;14.23;;
4595;SDS011;2310;49.978;8.742;2023-03-01T03:04:43;19.70;;;14.20;;
4595;SDS011;2310;49.978;8.742;2023-03-01T03:08:45;18.53;;;13.90;;
4595;SDS011;2310;49.978;8.742;2023-03-01T03:12:50;19.73;;;14.07;;
4595;SDS011;2310;49.978;8.742;2023-03-01T03:16:53;20.23;;;15.63;;
4595;SDS011;2310;49.978;8.742;2023-03-01T03:20:54;20.20;;;15.53;;
4595;SDS011;2310;49.978;8.742;2023-03-01T03:24:55;18.93;;;14.20;;
4595;SDS011;2310;49.978;8.742;2023-03-01T03:28:56;17.40;;;14.07;;
4595;SDS011;2310;49.978;8.742;2023-03-01T03:32:58;18.40;;;13.70;;
4595;SDS011;2310;49.978;8.742;2023-03-01T03:37:00;20.93;;;14.83;;
4595;SDS011;2310;49.978;8.742;2023-03-01T03:45:06;16.70;;;13.80;;
4595;SDS011;2310;49.978;8.742;2023-03-01T03:49:08;24.47;;;16.70;;
4595;SDS011;2310;49.978;8.742;2023-03-01T03:53:10;21.77;;;15.03;;
4595;SDS011;2310;49.978;8.742;2023-03-01T03:57:12;18.37;;;13.60;;
4595;SDS011;2310;49.978;8.742;2023-03-01T04:01:13;22.10;;;16.17;;
4595;SDS011;2310;49.978;8.742;2023-03-01T04:09:34;23.20;;;15.67;;
4595;SDS011;2310;49.978;8.742;2023-03-01T04:13:35;21.73;;;15.80;;
4595;SDS011;2310;49.978;8.742;2023-03-01T04:17:37;23.57;;;17.30;;
4595;SDS011;2310;49.978;8.742;2023-03-01T04:21:38;22.53;;;14.73;;
4595;SDS011;2310;49.978;8.742;2023-03-01T04:25:40;22.27;;;15.80;;
4595;SDS011;2310;49.978;8.742;2023-03-01T04:29:53;24.20;;;16.73;;
4595;SDS011;2310;49.978;8.742;2023-03-01T04:33:55;30.17;;;19.80;;
4595;SDS011;2310;49.978;8.742;2023-03-01T04:37:56;24.00;;;16.87;;
4595;SDS011;2310;49.978;8.742;2023-03-01T04:41:57;20.53;;;14.50;;
4595;SDS011;2310;49.978;8.742;2023-03-01T04:46:10;22.83;;;15.90;;
4595;SDS011;2310;49.978;8.742;2023-03-01T04:50:10;20.60;;;15.90;;
4595;SDS011;2310;49.978;8.742;2023-03-01T04:54:13;21.70;;;16.20;;
4595;SDS011;2310;49.978;8.742;2023-03-01T04:58:14;24.00;;;17.83;;
4595;SDS011;2310;49.978;8.742;2023-03-01T05:02:15;19.60;;;15.63;;
4595;SDS011;2310;49.978;8.742;2023-03-01T05:06:16;22.17;;;15.93;;
4595;SDS011;2310;49.978;8.742;2023-03-01T05:10:19;23.07;;;16.13;;
4595;SDS011;2310;49.978;8.742;2023-03-01T05:14:20;23.03;;;15.50;;
4595;SDS011;2310;49.978;8.742;2023-03-01T05:18:21;24.03;;;16.00;;
4595;SDS011;2310;49.978;8.742;2023-03-01T05:22:25;22.77;;;15.50;;
4595;SDS011;2310;49.978;8.742;2023-03-01T05:26:26;23.37;;;14.93;;
4595;SDS011;2310;49.978;8.742;2023-03-01T05:30:33;22.23;;;16.30;;
4595;SDS011;2310;49.978;8.742;2023-03-01T05:34:35;26.43;;;17.77;;
4595;SDS011;2310;49.978;8.742;2023-03-01T05:38:37;23.23;;;15.07;;
4595;SDS011;2310;49.978;8.742;2023-03-01T05:42:38;27.17;;;15.93;;
4595;SDS011;2310;49.978;8.742;2023-03-01T05:46:39;26.57;;;15.70;;
4595;SDS011;2310;49.978;8.742;2023-03-01T05:50:42;22.90;;;16.73;;
4595;SDS011;2310;49.978;8.742;2023-03-01T05:54:45;23.67;;;16.97;;
4595;SDS011;2310;49.978;8.742;2023-03-01T05:58:48;22.27;;;16.77;;
4595;SDS011;2310;49.978;8.742;2023-03-01T06:02:50;25.03;;;19.30;;
4595;SDS011;2310;49.978;8.742;2023-03-01T06:06:52;26.53;;;16.87;;
4595;SDS011;2310;49.978;8.742;2023-03-01T06:10:53;27.73;;;17.80;;
4595;SDS011;2310;49.978;8.742;2023-03-01T06:14:55;25.87;;;18.40;;
4595;SDS011;2310;49.978;8.742;2023-03-01T06:18:56;24.93;;;16.67;;
4595;SDS011;2310;49.978;8.742;2023-03-01T06:22:57;27.00;;;17.83;;
4595;SDS011;2310;49.978;8.742;2023-03-01T06:26:58;22.87;;;15.93;;
4595;SDS011;2310;49.978;8.742;2023-03-01T06:30:59;25.37;;;18.43;;
4595;SDS011;2310;49.978;8.742;2023-03-01T06:35:00;23.30;;;18.30;;
4595;SDS011;2310;49.978;8.742;2023-03-01T06:39:02;27.00;;;17.23;;
4595;SDS011;2310;49.978;8.742;2023-03-01T06:43:03;24.50;;;18.03;;
4595;SDS011;2310;49.978;8.742;2023-03-01T06:47:05;29.47;;;21.20;;
4595;SDS011;2310;49.978;8.742;2023-03-01T06:51:06;26.70;;;19.13;;
4595;SDS011;2310;49.978;8.742;2023-03-01T06:55:07;24.70;;;17.20;;
4595;SDS011;2310;49.978;8.742;2023-03-01T06:59:09;25.47;;;17.70;;
4595;SDS011;2310;49.978;8.742;2023-03-01T07:03:10;23.87;;;16.07;;
4595;SDS011;2310;49.978;8.742;2023-03-01T07:07:11;23.07;;;16.27;;
4595;SDS011;2310;49.978;8.742;2023-03-01T07:11:12;26.10;;;17.53;;
4595;SDS011;2310;49.978;8.742;2023-03-01T07:15:14;21.40;;;17.10;;
4595;SDS011;2310;49.978;8.742;2023-03-01T07:19:15;22.87;;;15.83;;
4595;SDS011;2310;49.978;8.742;2023-03-01T07:23:17;23.03;;;16.60;;
4595;SDS011;2310;49.978;8.742;2023-03-01T07:27:18;20.10;;;15.80;;
4595;SDS011;2310;49.978;8.742;2023-03-01T07:31:19;24.77;;;16.33;;
4595;SDS011;2310;49.978;8.742;2023-03-01T07:35:21;23.93;;;18.23;;
4595;SDS011;2310;49.978;8.742;2023-03-01T07:39:24;24.47;;;17.33;;
4595;SDS011;2310;49.978;8.742;2023-03-01T07:43:25;22.47;;;17.37;;
4595;SDS011;2310;49.978;8.742;2023-03-01T07:47:28;24.63;;;17.33;;
4595;SDS011;2310;49.978;8.742;2023-03-01T07:51:29;21.53;;;16.00;;
4595;SDS011;2310;49.978;8.742;2023-03-01T07:55:30;19.83;;;16.07;;
4595;SDS011;2310;49.978;8.742;2023-03-01T07:59:31;21.33;;;16.13;;
4595;SDS011;2310;49.978;8.742;2023-03-01T08:03:33;27.13;;;16.93;;
4595;SDS011;2310;49.978;8.742;2023-03-01T08:07:36;20.53;;;15.30;;
4595;SDS011;2310;49.978;8.742;2023-03-01T08:11:37;20.73;;;17.17;;
4595;SDS011;2310;49.978;8.742;2023-03-01T08:15:38;22.30;;;16.00;;
4595;SDS011;2310;49.978;8.742;2023-03-01T08:19:39;23.30;;;16.97;;
4595;SDS011;2310;49.978;8.742;2023-03-01T08:23:41;21.63;;;17.40;;
4595;SDS011;2310;49.978;8.742;2023-03-01T08:27:43;19.30;;;16.60;;
4595;SDS011;2310;49.978;8.742;2023-03-01T08:31:44;23.10;;;16.10;;
4595;SDS011;2310;49.978;8.742;2023-03-01T08:35:45;19.10;;;15.37;;
4595;SDS011;2310;49.978;8.742;2023-03-01T08:39:47;23.30;;;17.07;;
4595;SDS011;2310;49.978;8.742;2023-03-01T08:43:48;22.40;;;17.40;;
4595;SDS011;2310;49.978;8.742;2023-03-01T08:47:52;19.50;;;16.27;;
4595;SDS011;2310;49.978;8.742;2023-03-01T08:51:54;21.77;;;16.23;;
4595;SDS011;2310;49.978;8.742;2023-03-01T08:55:55;22.87;;;16.83;;
4595;SDS011;2310;49.978;8.742;2023-03-01T09:00:00;20.80;;;16.00;;
4595;SDS011;2310;49.978;8.742;2023-03-01T09:04:01;19.60;;;17.47;;
4595;SDS011;2310;49.978;8.742;2023-03-01T09:08:03;21.30;;;17.10;;
4595;SDS011;2310;49.978;8.742;2023-03-01T09:12:04;19.27;;;17.20;;
4595;SDS011;2310;49.978;8.742;2023-03-01T09:16:06;20.90;;;18.40;;
4595;SDS011;2310;49.978;8.742;2023-03-01T09:20:09;20.37;;;16.10;;
4595;SDS011;2310;49.978;8.742;2023-03-01T09:24:12;20.90;;;17.07;;
4595;SDS011;2310;49.978;8.742;2023-03-01T09:28:15;20.67;;;17.47;;
4595;SDS011;2310;49.978;8.742;2023-03-01T09:32:18;23.23;;;17.77;;
4595;SDS011;2310;49.978;8.742;2023-03-01T09:36:20;19.70;;;15.73;;
4595;SDS011;2310;49.978;8.742;2023-03-01T09:40:24;19.47;;;16.73;;
4595;SDS011;2310;49.978;8.742;2023-03-01T09:49:36;22.63;;;18.37;;
4595;SDS011;2310;49.978;8.742;2023-03-01T09:53:06;22.97;;;17.67;;
4595;SDS011;2310;49.978;8.742;2023-03-01T09:57:19;20.70;;;15.60;;
4595;SDS011;2310;49.978;8.742;2023-03-01T10:18:41;23.83;;;17.97;;
4595;SDS011;2310;49.978;8.742;2023-03-01T10:22:46;19.40;;;16.33;;
4595;SDS011;2310;49.978;8.742;2023-03-01T10:26:55;22.07;;;16.17;;
4595;SDS011;2310;49.978;8.742;2023-03-01T10:30:59;21.60;;;16.23;;
4595;SDS011;2310;49.978;8.742;2023-03-01T10:35:01;19.37;;;15.37;;
4595;SDS011;2310;49.978;8.742;2023-03-01T10:39:02;21.13;;;15.70;;
4595;SDS011;2310;49.978;8.742;2023-03-01T10:43:10;23.47;;;19.47;;
4595;SDS011;2310;49.978;8.742;2023-03-01T10:47:22;18.83;;;16.37;;
4595;SDS011;2310;49.978;8.742;2023-03-01T10:51:23;21.13;;;17.40;;
4595;SDS011;2310;49.978;8.742;2023-03-01T10:55:25;15.87;;;13.83;;
4595;SDS011;2310;49.978;8.742;2023-03-01T10:59:38;18.00;;;16.10;;
4595;SDS011;2310;49.978;8.742;2023-03-01T11:03:39;17.73;;;14.53;;
4595;SDS011;2310;49.978;8.742;2023-03-01T11:11:58;20.90;;;15.67;;
4595;SDS011;2310;49.978;8.742;2023-03-01T11:16:02;20.90;;;16.47;;
4595;SDS011;2310;49.978;8.742;2023-03-01T11:20:14;17.37;;;15.17;;
4595;SDS011;2310;49.978;8.742;2023-03-01T11:24:17;20.67;;;15.20;;
4595;SDS011;2310;49.978;8.742;2023-03-01T11:28:20;18.37;;;15.30;;
4595;SDS011;2310;49.978;8.742;2023-03-01T11:32:23;20.00;;;15.67;;
4595;SDS011;2310;49.978;8.742;2023-03-01T11:36:32;16.30;;;14.60;;
4595;SDS011;2310;49.978;8.742;2023-03-01T11:40:43;18.03;;;15.50;;
4595;SDS011;2310;49.978;8.742;2023-03-01T11:44:47;21.47;;;15.80;;
4595;SDS011;2310;49.978;8.742;2023-03-01T11:57:43;18.00;;;16.00;;
4595;SDS011;2310;49.978;8.742;2023-03-01T12:02:11;23.40;;;15.57;;
4595;SDS011;2310;49.978;8.742;2023-03-01T12:10:43;12.90;;;11.60;;
4595;SDS011;2310;49.978;8.742;2023-03-01T12:32:15;12.90;;;11.00;;
4595;SDS011;2310;49.978;8.742;2023-03-01T12:36:20;16.17;;;12.00;;
4595;SDS011;2310;49.978;8.742;2023-03-01T12:44:50;18.03;;;15.50;;
4595;SDS011;2310;49.978;8.742;2023-03-01T12:52:59;21.27;;;16.03;;
4595;SDS011;2310;49.978;8.742;2023-03-01T13:01:26;15.60;;;13.13;;
4595;SDS011;2310;49.978;8.742;2023-03-01T13:05:56;16.20;;;14.23;;
4595;SDS011;2310;49.978;8.742;2023-03-01T13:18:28;18.20;;;13.90;;
4595;SDS011;2310;49.978;8.742;2023-03-01T13:22:32;15.83;;;13.73;;
4595;SDS011;2310;49.978;8.742;2023-03-01T13:27:08;17.83;;;12.40;;
4595;SDS011;2310;49.978;8.742;2023-03-01T13:30:58;15.50;;;12.03;;
4595;SDS011;2310;49.978;8.742;2023-03-01T13:35:00;14.73;;;11.90;;
4595;SDS011;2310;49.978;8.742;2023-03-01T13:43:33;15.20;;;12.57;;
4595;SDS011;2310;49.978;8.742;2023-03-01T13:47:36;15.30;;;12.13;;
4595;SDS011;2310;49.978;8.742;2023-03-01T13:51:39;15.67;;;12.53;;
4595;SDS011;2310;49.978;8.742;2023-03-01T13:59:46;15.40;;;13.50;;
4595;SDS011;2310;49.978;8.742;2023-03-01T14:03:48;13.97;;;10.53;;
4595;SDS011;2310;49.978;8.742;2023-03-01T14:07:51;13.73;;;10.50;;
4595;SDS011;2310;49.978;8.742;2023-03-01T14:20:20;17.30;;;12.23;;
4595;SDS011;2310;49.978;8.742;2023-03-01T14:24:23;14.10;;;11.37;;
4595;SDS011;2310;49.978;8.742;2023-03-01T14:28:28;16.03;;;11.90;;
4595;SDS011;2310;49.978;8.742;2023-03-01T14:32:31;16.80;;;13.73;;
4595;SDS011;2310;49.978;8.742;2023-03-01T14:36:33;13.37;;;12.07;;
4595;SDS011;2310;49.978;8.742;2023-03-01T14:40:35;15.00;;;13.20;;
4595;SDS011;2310;49.978;8.742;2023-03-01T14:44:37;15.40;;;12.30;;
4595;SDS011;2310;49.978;8.742;2023-03-01T14:48:39;15.50;;;12.80;;
4595;SDS011;2310;49.978;8.742;2023-03-01T14:52:41;14.50;;;12.87;;
4595;SDS011;2310;49.978;8.742;2023-03-01T14:56:46;14.97;;;11.70;;
4595;SDS011;2310;49.978;8.742;2023-03-01T15:00:53;16.07;;;12.87;;
4595;SDS011;2310;49.978;8.742;2023-03-01T15:04:54;15.13;;;13.10;;
4595;SDS011;2310;49.978;8.742;2023-03-01T15:08:57;14.97;;;13.30;;
4595;SDS011;2310;49.978;8.742;2023-03-01T15:13:12;13.90;;;12.50;;
4595;SDS011;2310;49.978;8.742;2023-03-01T15:17:19;17.53;;;14.17;;
4595;SDS011;2310;49.978;8.742;2023-03-01T15:21:25;14.03;;;12.57;;
4595;SDS011;2310;49.978;8.742;2023-03-01T15:25:36;17.30;;;10.73;;
4595;SDS011;2310;49.978;8.742;2023-03-01T15:29:39;13.73;;;12.37;;
4595;SDS011;2310;49.978;8.742;2023-03-01T15:33:41;16.37;;;13.07;;
4595;SDS011;2310;49.978;8.742;2023-03-01T15:37:45;14.77;;;11.90;;
4595;SDS011;2310;49.978;8.742;2023-03-01T15:41:50;13.90;;;11.20;;
4595;SDS011;2310;49.978;8.742;2023-03-01T15:45:57;14.13;;;11.60;;
4595;SDS011;2310;49.978;8.742;2023-03-01T15:49:59;16.03;;;12.30;;
4595;SDS011;2310;49.978;8.742;2023-03-01T15:54:13;13.67;;;11.70;;
4595;SDS011;2310;49.978;8.742;2023-03-01T15:58:23;17.57;;;13.67;;
4595;SDS011;2310;49.978;8.742;2023-03-01T16:02:23;15.43;;;12.70;;
4595;SDS011;2310;49.978;8.742;2023-03-01T16:06:25;13.17;;;11.00;;
4595;SDS011;2310;49.978;8.742;2023-03-01T16:10:26;14.87;;;11.07;;
4595;SDS011;2310;49.978;8.742;2023-03-01T16:14:28;19.93;;;12.73;;
4595;SDS011;2310;49.978;8.742;2023-03-01T16:18:30;17.67;;;12.13;;
4595;SDS011;2310;49.978;8.742;2023-03-01T16:22:31;17.47;;;14.70;;
4595;SDS011;2310;49.978;8.742;2023-03-01T16:26:32;19.40;;;14.10;;
4595;SDS011;2310;49.978;8.742;2023-03-01T16:30:34;19.43;;;14.33;;
4595;SDS011;2310;49.978;8.742;2023-03-01T16:34:37;20.17;;;15.07;;
4595;SDS011;2310;49.978;8.742;2023-03-01T16:38:39;18.80;;;15.10;;
4595;SDS011;2310;49.978;8.742;2023-03-01T16:42:40;21.00;;;15.73;;
4595;SDS011;2310;49.978;8.742;2023-03-01T16:46:42;18.80;;;15.37;;
4595;SDS011;2310;49.978;8.742;2023-03-01T16:50:44;21.17;;;14.73;;
4595;SDS011;2310;49.978;8.742;2023-03-01T16:54:45;18.53;;;15.67;;
4595;SDS011;2310;49.978;8.742;2023-03-01T16:58:47;20.20;;;16.90;;
4595;SDS011;2310;49.978;8.742;2023-03-01T17:02:48;21.03;;;16.40;;
4595;SDS011;2310;49.978;8.742;2023-03-01T17:06:49;25.33;;;16.60;;
4595;SDS011;2310;49.978;8.742;2023-03-01T17:10:50;21.90;;;16.63;;
4595;SDS011;2310;49.978;8.742;2023-03-01T17:14:52;19.50;;;15.10;;
4595;SDS011;2310;49.978;8.742;2023-03-01T17:18:53;23.23;;;17.70;;
4595;SDS011;2310;49.978;8.742;2023-03-01T17:22:54;19.83;;;16.30;;
4595;SDS011;2310;49.978;8.742;2023-03-01T17:26:55;24.63;;;18.53;;
4595;SDS011;2310;49.978;8.742;2023-03-01T17:30:57;19.97;;;17.83;;
4595;SDS011;2310;49.978;8.742;2023-03-01T17:34:59;22.60;;;17.40;;
4595;SDS011;2310;49.978;8.742;2023-03-01T17:39:00;22.73;;;17.17;;
4595;SDS011;2310;49.978;8.742;2023-03-01T17:43:01;19.10;;;15.67;;
4595;SDS011;2310;49.978;8.742;2023-03-01T17:47:03;18.87;;;14.60;;
4595;SDS011;2310;49.978;8.742;2023-03-01T17:51:06;20.33;;;15.40;;
4595;SDS011;2310;49.978;8.742;2023-03-01T17:55:08;16.07;;;14.37;;
4595;SDS011;2310;49.978;8.742;2023-03-01T17:59:10;18.97;;;14.93;;
4595;SDS011;2310;49.978;8.742;2023-03-01T18:03:11;17.40;;;14.83;;
4595;SDS011;2310;49.978;8.742;2023-03-01T18:07:13;21.40;;;15.53;;
4595;SDS011;2310;49.978;8.742;2023-03-01T18:11:14;18.80;;;14.43;;
4595;SDS011;2310;49.978;8.742;2023-03-01T18:15:15;17.23;;;13.33;;
4595;SDS011;2310;49.978;8.742;2023-03-01T18:19:18;18.27;;;15.40;;
4595;SDS011;2310;49.978;8.742;2023-03-01T18:23:20;24.03;;;16.93;;
4595;SDS011;2310;49.978;8.742;2023-03-01T18:27:22;18.83;;;16.23;;
4595;SDS011;2310;49.978;8.742;2023-03-01T18:31:23;18.40;;;15.40;;
4595;SDS011;2310;49.978;8.742;2023-03-01T18:35:24;19.73;;;15.40;;
4595;SDS011;2310;49.978;8.742;2023-03-01T18:39:26;22.97;;;15.93;;
4595;SDS011;2310;49.978;8.742;2023-03-01T18:43:27;19.97;;;16.17;;
4595;SDS011;2310;49.978;8.742;2023-03-01T18:47:29;19.50;;;15.10;;
4595;SDS011;2310;49.978;8.742;2023-03-01T18:51:31;19.23;;;14.37;;
4595;SDS011;2310;49.978;8.742;2023-03-01T18:55:36;20.20;;;14.53;;
4595;SDS011;2310;49.978;8.742;2023-03-01T18:59:38;19.17;;;14.37;;
4595;SDS011;2310;49.978;8.742;2023-03-01T19:03:39;18.50;;;13.80;;
4595;SDS011;2310;49.978;8.742;2023-03-01T19:07:40;21.77;;;15.90;;
4595;SDS011;2310;49.978;8.742;2023-03-01T19:11:41;16.33;;;12.83;;
4595;SDS011;2310;49.978;8.742;2023-03-01T19:15:42;22.50;;;14.90;;
4595;SDS011;2310;49.978;8.742;2023-03-01T19:19:44;19.30;;;14.10;;
4595;SDS011;2310;49.978;8.742;2023-03-01T19:23:47;20.23;;;16.40;;
4595;SDS011;2310;49.978;8.742;2023-03-01T19:27:49;19.03;;;15.17;;
4595;SDS011;2310;49.978;8.742;2023-03-01T19:31:50;19.03;;;14.60;;
4595;SDS011;2310;49.978;8.742;2023-03-01T19:35:51;20.33;;;14.03;;
4595;SDS011;2310;49.978;8.742;2023-03-01T19:39:54;26.23;;;16.60;;
4595;SDS011;2310;49.978;8.742;2023-03-01T19:43:56;19.40;;;14.70;;
4595;SDS011;2310;49.978;8.742;2023-03-01T19:47:58;17.83;;;13.60;;
4595;SDS011;2310;49.978;8.742;2023-03-01T19:51:59;20.07;;;14.73;;
4595;SDS011;2310;49.978;8.742;2023-03-01T19:56:00;19.10;;;15.13;;
4595;SDS011;2310;49.978;8.742;2023-03-01T20:00:02;23.57;;;17.33;;
4595;SDS011;2310;49.978;8.742;2023-03-01T20:04:05;18.97;;;15.60;;
4595;SDS011;2310;49.978;8.742;2023-03-01T20:08:08;25.57;;;19.60;;
4595;SDS011;2310;49.978;8.742;2023-03-01T20:12:10;22.13;;;16.73;;
4595;SDS011;2310;49.978;8.742;2023-03-01T20:16:11;22.43;;;16.30;;
4595;SDS011;2310;49.978;8.742;2023-03-01T20:20:16;20.60;;;15.60;;
4595;SDS011;2310;49.978;8.742;2023-03-01T20:24:17;22.47;;;15.43;;
4595;SDS011;2310;49.978;8.742;2023-03-01T20:28:18;21.17;;;16.43;;
4595;SDS011;2310;49.978;8.742;2023-03-01T20:32:19;20.33;;;14.80;;
4595;SDS011;2310;49.978;8.742;2023-03-01T20:36:21;22.23;;;15.90;;
4595;SDS011;2310;49.978;8.742;2023-03-01T20:40:22;20.13;;;15.93;;
4595;SDS011;2310;49.978;8.742;2023-03-01T20:44:25;19.30;;;16.80;;
4595;SDS011;2310;49.978;8.742;2023-03-01T20:48:26;20.63;;;15.40;;
4595;SDS011;2310;49.978;8.742;2023-03-01T20:52:27;19.80;;;14.90;;
4595;SDS011;2310;49.978;8.742;2023-03-01T20:56:30;20.20;;;16.17;;
4595;SDS011;2310;49.978;8.742;2023-03-01T21:00:32;24.30;;;16.03;;
4595;SDS011;2310;49.978;8.742;2023-03-01T21:04:33;22.80;;;16.33;;
4595;SDS011;2310;49.978;8.742;2023-03-01T21:08:35;29.83;;;18.87;;
4595;SDS011;2310;49.978;8.742;2023-03-01T21:12:36;22.83;;;14.93;;
4595;SDS011;2310;49.978;8.742;2023-03-01T21:16:37;21.57;;;16.63;;
4595;SDS011;2310;49.978;8.742;2023-03-01T21:20:39;28.40;;;19.87;;
4595;SDS011;2310;49.978;8.742;2023-03-01T21:24:42;26.23;;;18.63;;
4595;SDS011;2310;49.978;8.742;2023-03-01T21:28:43;26.80;;;18.47;;
4595;SDS011;2310;49.978;8.742;2023-03-01T21:32:44;29.83;;;19.30;;
4595;SDS011;2310;49.978;8.742;2023-03-01T21:36:45;31.20;;;20.53;;
4595;SDS011;2310;49.978;8.742;2023-03-01T21:40:46;24.10;;;18.80;;
4595;SDS011;2310;49.978;8.742;2023-03-01T21:44:47;24.10;;;18.23;;
4595;SDS011;2310;49.978;8.742;2023-03-01T21:48:49;22.90;;;17.50;;
4595;SDS011;2310;49.978;8.742;2023-03-01T21:52:52;25.30;;;17.60;;
4595;SDS011;2310;49.978;8.742;2023-03-01T21:56:53;20.63;;;15.60;;
4595;SDS011;2310;49.978;8.742;2023-03-01T22:00:54;22.90;;;16.63;;
4595;SDS011;2310;49.978;8.742;2023-03-01T22:04:56;19.43;;;15.17;;
4595;SDS011;2310;49.978;8.742;2023-03-01T22:08:58;21.90;;;15.80;;
4595;SDS011;2310;49.978;8.742;2023-03-01T22:13:01;21.80;;;15.50;;
4595;SDS011;2310;49.978;8.742;2023-03-01T22:17:02;22.57;;;15.97;;
4595;SDS011;2310;49.978;8.742;2023-03-01T22:21:04;20.10;;;15.27;;
4595;SDS011;2310;49.978;8.742;2023-03-01T22:25:06;22.80;;;15.67;;
4595;SDS011;2310;49.978;8.742;2023-03-01T22:29:09;23.70;;;15.30;;
4595;SDS011;2310;49.978;8.742;2023-03-01T22:33:13;24.70;;;15.87;;
4595;SDS011;2310;49.978;8.742;2023-03-01T22:37:14;27.60;;;19.20;;
4595;SDS011;2310;49.978;8.742;2023-03-01T22:41:15;22.23;;;15.90;;
4595;SDS011;2310;49.978;8.742;2023-03-01T22:45:17;24.50;;;16.40;;
4595;SDS011;2310;49.978;8.742;2023-03-01T22:49:18;21.20;;;14.87;;
4595;SDS011;2310;49.978;8.742;2023-03-01T22:53:20;22.43;;;14.90;;
4595;SDS011;2310;49.978;8.742;2023-03-01T22:57:21;19.80;;;15.43;;
4595;SDS011;2310;49.978;8.742;2023-03-01T23:01:23;20.13;;;14.73;;
4595;SDS011;2310;49.978;8.742;2023-03-01T23:05:25;19.20;;;14.60;;
4595;SDS011;2310;49.978;8.742;2023-03-01T23:09:27;22.87;;;16.77;;
4595;SDS011;2310;49.978;8.742;2023-03-01T23:13:30;23.37;;;15.80;;
4595;SDS011;2310;49.978;8.742;2023-03-01T23:17:31;19.60;;;15.10;;
4595;SDS011;2310;49.978;8.742;2023-03-01T23:21:33;19.63;;;13.67;;
4595;SDS011;2310;49.978;8.742;2023-03-01T23:25:34;19.27;;;14.10;;
4595;SDS011;2310;49.978;8.742;2023-03-01T23:29:36;20.07;;;15.10;;
4595;SDS011;2310;49.978;8.742;2023-03-01T23:33:37;22.37;;;15.07;;
4595;SDS011;2310;49.978;8.742;2023-03-01T23:37:38;19.77;;;14.97;;
4595;SDS011;2310;49.978;8.742;2023-03-01T23:41:40;19.80;;;15.63;;
4595;SDS011;2310;49.978;8.742;2023-03-01T23:45:41;19.17;;;14.33;;
4595;SDS011;2310;49.978;8.742;2023-03-01T23:49:43;22.23;;;17.10;;
4595;SDS011;2310;49.978;8.742;2023-03-01T23:53:45;21.47;;;14.80;;
4595;SDS011;2310;49.978;8.742;2023-03-01T23:57:50;22.80;;;15.83;;
